sensor_id;sensor_type;location;lat;lon;timestamp;temperature;humidity
16388;DHT22;8303;53.446;9.988;2023-03-25T05:46:33;8.60;99.90
16388;DHT22;8303;53.446;9.988;2023-03-25T05:49:01;8.60;99.90
16388;DHT22;8303;53.446;9.988;2023-03-25T05:51:31;8.50;1.00
16388;DHT22;8303;53.446;9.988;2023-03-25T05:54:02;8.50;1.00
16388;DHT22;8303;53.446;9.988;2023-03-25T05:56:33;8.50;1.00
16388;DHT22;8303;53.446;9.988;2023-03-25T05:59:02;8.50;1.00
16388;DHT22;8303;53.446;9.988;2023-03-25T06:01:29;8.50;1.00
16388;DHT22;8303;53.446;9.988;2023-03-25T06:04:00;8.50;1.00
16388;DHT22;8303;53.446;9.988;2023-03-25T06:06:27;8.50;1.00
16388;DHT22;8303;53.446;9.988;2023-03-25T06:08:54;8.60;1.00
16388;DHT22;8303;53.446;9.988;2023-03-25T06:11:21;8.60;1.00
16388;DHT22;8303;53.446;9.988;2023-03-25T06:13:48;8.60;1.00
16388;DHT22;8303;53.446;9.988;2023-03-25T06:16:16;8.60;1.00
16388;DHT22;8303;53.446;9.988;2023-03-25T06:18:44;8.60;1.00
16388;DHT22;8303;53.446;9.988;2023-03-25T06:21:17;8.60;1.00
16388;DHT22;8303;53.446;9.988;2023-03-25T06:23:45;8.60;1.00
16388;DHT22;8303;53.446;9.988;2023-03-25T06:26:12;8.60;1.00
16388;DHT22;8303;53.446;9.988;2023-03-25T06:28:40;8.50;1.00
16388;DHT22;8303;53.446;9.988;2023-03-25T06:31:11;8.60;1.00
16388;DHT22;8303;53.446;9.988;2023-03-25T06:33:40;8.70;1.00
16388;DHT22;8303;53.446;9.988;2023-03-25T06:36:08;8.70;1.00
16388;DHT22;8303;53.446;9.988;2023-03-25T06:38:37;8.70;1.00
16388;DHT22;8303;53.446;9.988;2023-03-25T06:41:06;8.70;1.00
16388;DHT22;8303;53.446;9.988;2023-03-25T06:43:33;8.80;1.00
16388;DHT22;8303;53.446;9.988;2023-03-25T06:46:00;8.80;1.00
16388;DHT22;8303;53.446;9.988;2023-03-25T06:48:27;8.90;1.00
16388;DHT22;8303;53.446;9.988;2023-03-25T06:50:54;9.00;1.00
16388;DHT22;8303;53.446;9.988;2023-03-25T06:53:21;9.30;1.00
16388;DHT22;8303;53.446;9.988;2023-03-25T06:55:49;9.40;1.00
16388;DHT22;8303;53.446;9.988;2023-03-25T06:58:16;9.40;1.00
16388;DHT22;8303;53.446;9.988;2023-03-25T07:00:43;9.40;1.00
16388;DHT22;8303;53.446;9.988;2023-03-25T07:03:11;9.40;1.00
16388;DHT22;8303;53.446;9.988;2023-03-25T07:05:40;9.40;99.90
16388;DHT22;8303;53.446;9.988;2023-03-25T07:08:07;9.50;99.90
16388;DHT22;8303;53.446;9.988;2023-03-25T07:10:34;9.60;99.90
16388;DHT22;8303;53.446;9.988;2023-03-25T07:13:02;9.60;99.90
16388;DHT22;8303;53.446;9.988;2023-03-25T07:15:29;9.70;99.90
16388;DHT22;8303;53.446;9.988;2023-03-25T07:17:56;9.60;99.90
16388;DHT22;8303;53.446;9.988;2023-03-25T07:20:23;9.60;99.90
16388;DHT22;8303;53.446;9.988;2023-03-25T07:22:50;9.80;99.90
16388;DHT22;8303;53.446;9.988;2023-03-25T07:25:19;9.90;99.90
16388;DHT22;8303;53.446;9.988;2023-03-25T07:27:45;9.90;99.90
16388;DHT22;8303;53.446;9.988;2023-03-25T07:30:14;9.90;99.90
16388;DHT22;8303;53.446;9.988;2023-03-25T07:32:43;10.00;99.90
16388;DHT22;8303;53.446;9.988;2023-03-25T07:35:10;10.00;99.90
16388;DHT22;8303;53.446;9.988;2023-03-25T07:37:37;10.10;99.90
16388;DHT22;8303;53.446;9.988;2023-03-25T07:40:06;10.20;99.90
16388;DHT22;8303;53.446;9.988;2023-03-25T07:42:35;10.20;99.90
16388;DHT22;8303;53.446;9.988;2023-03-25T07:45:02;10.10;99.90
16388;DHT22;8303;53.446;9.988;2023-03-25T07:47:31;10.00;99.90
16388;DHT22;8303;53.446;9.988;2023-03-25T07:49:58;9.90;99.90
16388;DHT22;8303;53.446;9.988;2023-03-25T07:52:24;9.80;99.90
16388;DHT22;8303;53.446;9.988;2023-03-25T07:54:51;9.70;99.90
16388;DHT22;8303;53.446;9.988;2023-03-25T07:57:18;9.80;99.90
16388;DHT22;8303;53.446;9.988;2023-03-25T07:59:45;10.00;99.90
16388;DHT22;8303;53.446;9.988;2023-03-25T08:02:13;10.20;99.90
16388;DHT22;8303;53.446;9.988;2023-03-25T08:04:41;10.40;99.90
16388;DHT22;8303;53.446;9.988;2023-03-25T08:07:09;10.50;99.90
16388;DHT22;8303;53.446;9.988;2023-03-25T08:09:36;10.60;99.90
16388;DHT22;8303;53.446;9.988;2023-03-25T08:12:03;10.40;99.90
16388;DHT22;8303;53.446;9.988;2023-03-25T08:14:30;10.30;99.90
16388;DHT22;8303;53.446;9.988;2023-03-25T08:16:57;10.40;99.90
16388;DHT22;8303;53.446;9.988;2023-03-25T08:19:24;10.40;99.90
16388;DHT22;8303;53.446;9.988;2023-03-25T08:21:52;10.40;99.90
16388;DHT22;8303;53.446;9.988;2023-03-25T08:24:19;10.50;99.90
16388;DHT22;8303;53.446;9.988;2023-03-25T08:26:46;10.60;99.90
16388;DHT22;8303;53.446;9.988;2023-03-25T08:29:13;10.70;99.90
16388;DHT22;8303;53.446;9.988;2023-03-25T08:31:42;10.80;99.90
16388;DHT22;8303;53.446;9.988;2023-03-25T08:34:12;10.90;99.90
16388;DHT22;8303;53.446;9.988;2023-03-25T08:36:39;10.80;99.90
16388;DHT22;8303;53.446;9.988;2023-03-25T08:39:07;10.90;99.90
16388;DHT22;8303;53.446;9.988;2023-03-25T08:41:36;11.10;99.90
16388;DHT22;8303;53.446;9.988;2023-03-25T08:44:03;11.10;98.50
16388;DHT22;8303;53.446;9.988;2023-03-25T08:46:30;11.00;67.40
16388;DHT22;8303;53.446;9.988;2023-03-25T08:48:57;10.80;74.70
16388;DHT22;8303;53.446;9.988;2023-03-25T08:51:25;10.70;84.10
16388;DHT22;8303;53.446;9.988;2023-03-25T08:53:52;10.80;93.00
16388;DHT22;8303;53.446;9.988;2023-03-25T08:56:20;10.80;69.20
16388;DHT22;8303;53.446;9.988;2023-03-25T08:58:47;10.30;99.90
16388;DHT22;8303;53.446;9.988;2023-03-25T09:01:14;10.00;99.90
16388;DHT22;8303;53.446;9.988;2023-03-25T09:03:41;9.70;99.90
16388;DHT22;8303;53.446;9.988;2023-03-25T09:06:08;9.60;99.90
16388;DHT22;8303;53.446;9.988;2023-03-25T09:08:36;9.50;99.90
16388;DHT22;8303;53.446;9.988;2023-03-25T09:11:03;9.30;99.90
16388;DHT22;8303;53.446;9.988;2023-03-25T09:13:31;8.90;99.90
16388;DHT22;8303;53.446;9.988;2023-03-25T09:15:58;8.50;1.00
16388;DHT22;8303;53.446;9.988;2023-03-25T09:18:25;8.40;1.00
16388;DHT22;8303;53.446;9.988;2023-03-25T09:20:57;8.20;1.00
16388;DHT22;8303;53.446;9.988;2023-03-25T09:23:24;8.00;1.00
16388;DHT22;8303;53.446;9.988;2023-03-25T09:25:51;7.80;1.00
16388;DHT22;8303;53.446;9.988;2023-03-25T09:28:18;7.70;1.00
16388;DHT22;8303;53.446;9.988;2023-03-25T09:30:46;7.70;1.00
16388;DHT22;8303;53.446;9.988;2023-03-25T09:33:13;7.70;1.00
16388;DHT22;8303;53.446;9.988;2023-03-25T09:35:40;7.60;1.00
16388;DHT22;8303;53.446;9.988;2023-03-25T09:38:07;7.40;1.00
16388;DHT22;8303;53.446;9.988;2023-03-25T09:40:34;7.30;1.00
16388;DHT22;8303;53.446;9.988;2023-03-25T09:43:19;7.40;1.00
16388;DHT22;8303;53.446;9.988;2023-03-25T09:45:50;7.30;1.00
16388;DHT22;8303;53.446;9.988;2023-03-25T09:48:28;7.20;1.00
16388;DHT22;8303;53.446;9.988;2023-03-25T09:50:59;7.20;1.00
16388;DHT22;8303;53.446;9.988;2023-03-25T09:53:31;7.30;1.00
16388;DHT22;8303;53.446;9.988;2023-03-25T09:56:02;7.50;1.00
16388;DHT22;8303;53.446;9.988;2023-03-25T09:58:41;7.80;1.00
16388;DHT22;8303;53.446;9.988;2023-03-25T10:01:22;8.20;1.00
16388;DHT22;8303;53.446;9.988;2023-03-25T10:04:04;8.40;1.00
16388;DHT22;8303;53.446;9.988;2023-03-25T10:06:38;8.70;1.00
16388;DHT22;8303;53.446;9.988;2023-03-25T10:09:29;8.80;1.00
16388;DHT22;8303;53.446;9.988;2023-03-25T10:12:04;8.80;1.00
16388;DHT22;8303;53.446;9.988;2023-03-25T10:14:39;9.00;1.00
16388;DHT22;8303;53.446;9.988;2023-03-25T10:17:18;9.10;1.00
16388;DHT22;8303;53.446;9.988;2023-03-25T10:19:55;9.30;1.00
16388;DHT22;8303;53.446;9.988;2023-03-25T10:22:26;9.40;1.00
16388;DHT22;8303;53.446;9.988;2023-03-25T10:24:56;9.50;1.00
16388;DHT22;8303;53.446;9.988;2023-03-25T10:27:31;9.60;99.90
16388;DHT22;8303;53.446;9.988;2023-03-25T10:30:03;9.60;99.90
16388;DHT22;8303;53.446;9.988;2023-03-25T10:32:39;9.80;99.90
16388;DHT22;8303;53.446;9.988;2023-03-25T10:35:13;10.20;99.90
16388;DHT22;8303;53.446;9.988;2023-03-25T10:37:41;10.40;99.90
16388;DHT22;8303;53.446;9.988;2023-03-25T10:40:14;10.70;99.90
16388;DHT22;8303;53.446;9.988;2023-03-25T10:42:51;10.50;99.90
16388;DHT22;8303;53.446;9.988;2023-03-25T10:45:22;10.60;99.90
16388;DHT22;8303;53.446;9.988;2023-03-25T10:47:55;10.90;99.90
16388;DHT22;8303;53.446;9.988;2023-03-25T10:50:23;10.80;99.90
16388;DHT22;8303;53.446;9.988;2023-03-25T10:52:51;10.90;99.90
16388;DHT22;8303;53.446;9.988;2023-03-25T10:55:23;11.00;99.90
16388;DHT22;8303;53.446;9.988;2023-03-25T10:57:54;11.20;99.90
16388;DHT22;8303;53.446;9.988;2023-03-25T11:00:22;11.10;70.90
16388;DHT22;8303;53.446;9.988;2023-03-25T11:02:52;11.10;99.90
16388;DHT22;8303;53.446;9.988;2023-03-25T11:05:22;11.00;99.90
16388;DHT22;8303;53.446;9.988;2023-03-25T11:07:52;10.80;99.90
16388;DHT22;8303;53.446;9.988;2023-03-25T11:10:23;10.50;99.90
16388;DHT22;8303;53.446;9.988;2023-03-25T11:12:51;10.20;99.90
16388;DHT22;8303;53.446;9.988;2023-03-25T11:15:22;10.00;99.90
16388;DHT22;8303;53.446;9.988;2023-03-25T11:17:59;9.70;99.90
16388;DHT22;8303;53.446;9.988;2023-03-25T11:20:28;9.50;99.90
16388;DHT22;8303;53.446;9.988;2023-03-25T11:23:03;9.20;99.90
16388;DHT22;8303;53.446;9.988;2023-03-25T11:25:35;8.90;99.90
16388;DHT22;8303;53.446;9.988;2023-03-25T11:28:10;8.60;99.90
16388;DHT22;8303;53.446;9.988;2023-03-25T11:31:08;8.30;99.90
16388;DHT22;8303;53.446;9.988;2023-03-25T11:33:37;8.00;99.90
16388;DHT22;8303;53.446;9.988;2023-03-25T11:36:26;8.00;99.90
16388;DHT22;8303;53.446;9.988;2023-03-25T11:38:58;7.90;99.90
16388;DHT22;8303;53.446;9.988;2023-03-25T11:41:30;7.90;1.00
16388;DHT22;8303;53.446;9.988;2023-03-25T11:43:58;8.00;1.00
16388;DHT22;8303;53.446;9.988;2023-03-25T11:46:25;8.30;99.90
16388;DHT22;8303;53.446;9.988;2023-03-25T11:48:54;8.70;99.90
16388;DHT22;8303;53.446;9.988;2023-03-25T11:51:22;9.40;1.00
16388;DHT22;8303;53.446;9.988;2023-03-25T11:53:56;9.80;99.90
16388;DHT22;8303;53.446;9.988;2023-03-25T11:56:29;9.90;99.90
16388;DHT22;8303;53.446;9.988;2023-03-25T11:59:03;9.70;99.90
16388;DHT22;8303;53.446;9.988;2023-03-25T12:01:37;10.10;99.90
16388;DHT22;8303;53.446;9.988;2023-03-25T12:04:13;10.20;99.90
16388;DHT22;8303;53.446;9.988;2023-03-25T12:06:59;10.10;99.90
16388;DHT22;8303;53.446;9.988;2023-03-25T12:09:28;10.10;99.90
16388;DHT22;8303;53.446;9.988;2023-03-25T12:12:05;10.10;99.90
16388;DHT22;8303;53.446;9.988;2023-03-25T12:14:51;10.40;99.90
16388;DHT22;8303;53.446;9.988;2023-03-25T12:17:28;10.70;99.90
16388;DHT22;8303;53.446;9.988;2023-03-25T12:20:07;11.10;99.90
16388;DHT22;8303;53.446;9.988;2023-03-25T12:22:52;11.80;99.90
16388;DHT22;8303;53.446;9.988;2023-03-25T12:25:25;11.70;26.50
16388;DHT22;8303;53.446;9.988;2023-03-25T12:28:09;11.90;99.90
16388;DHT22;8303;53.446;9.988;2023-03-25T12:30:49;11.90;1.00
16388;DHT22;8303;53.446;9.988;2023-03-25T12:33:33;11.70;26.00
16388;DHT22;8303;53.446;9.988;2023-03-25T12:36:18;11.50;40.60
16388;DHT22;8303;53.446;9.988;2023-03-25T12:39:03;11.40;99.90
16388;DHT22;8303;53.446;9.988;2023-03-25T12:41:45;11.40;99.90
16388;DHT22;8303;53.446;9.988;2023-03-25T12:44:33;11.30;99.90
16388;DHT22;8303;53.446;9.988;2023-03-25T12:47:14;10.90;99.90
16388;DHT22;8303;53.446;9.988;2023-03-25T12:50:12;10.50;99.90
16388;DHT22;8303;53.446;9.988;2023-03-25T12:52:53;10.30;99.90
16388;DHT22;8303;53.446;9.988;2023-03-25T12:55:48;10.30;99.90
16388;DHT22;8303;53.446;9.988;2023-03-25T12:58:38;10.30;99.90
16388;DHT22;8303;53.446;9.988;2023-03-25T13:01:12;10.40;99.90
16388;DHT22;8303;53.446;9.988;2023-03-25T13:03:57;10.30;99.90
16388;DHT22;8303;53.446;9.988;2023-03-25T13:06:34;10.40;99.90
16388;DHT22;8303;53.446;9.988;2023-03-25T13:09:08;10.60;1.00
16388;DHT22;8303;53.446;9.988;2023-03-25T13:11:40;10.40;99.90
16388;DHT22;8303;53.446;9.988;2023-03-25T13:14:15;10.80;1.00
16388;DHT22;8303;53.446;9.988;2023-03-25T13:16:44;10.80;99.90
16388;DHT22;8303;53.446;9.988;2023-03-25T13:19:16;11.00;99.90
16388;DHT22;8303;53.446;9.988;2023-03-25T13:21:50;11.30;99.90
16388;DHT22;8303;53.446;9.988;2023-03-25T13:24:22;11.70;99.90
16388;DHT22;8303;53.446;9.988;2023-03-25T13:26:52;12.00;99.90
16388;DHT22;8303;53.446;9.988;2023-03-25T13:29:25;12.20;99.90
16388;DHT22;8303;53.446;9.988;2023-03-25T13:31:56;12.60;99.90
16388;DHT22;8303;53.446;9.988;2023-03-25T13:34:29;12.80;99.90
16388;DHT22;8303;53.446;9.988;2023-03-25T13:37:07;12.60;99.90
16388;DHT22;8303;53.446;9.988;2023-03-25T13:40:08;12.50;93.90
16388;DHT22;8303;53.446;9.988;2023-03-25T13:42:42;12.10;40.80
16388;DHT22;8303;53.446;9.988;2023-03-25T13:45:15;11.40;99.90
16388;DHT22;8303;53.446;9.988;2023-03-25T13:47:46;11.10;99.90
16388;DHT22;8303;53.446;9.988;2023-03-25T13:50:23;10.90;99.90
16388;DHT22;8303;53.446;9.988;2023-03-25T13:52:55;10.90;99.90
16388;DHT22;8303;53.446;9.988;2023-03-25T13:55:32;10.90;99.90
16388;DHT22;8303;53.446;9.988;2023-03-25T13:58:15;10.90;99.90
16388;DHT22;8303;53.446;9.988;2023-03-25T14:01:04;10.90;99.90
16388;DHT22;8303;53.446;9.988;2023-03-25T14:06:50;10.30;99.90
16388;DHT22;8303;53.446;9.988;2023-03-25T14:09:42;10.10;99.90
16388;DHT22;8303;53.446;9.988;2023-03-25T14:12:20;9.90;99.90
16388;DHT22;8303;53.446;9.988;2023-03-25T14:14:55;9.40;99.90
16388;DHT22;8303;53.446;9.988;2023-03-25T14:17:24;8.60;99.90
16388;DHT22;8303;53.446;9.988;2023-03-25T14:19:53;7.30;99.90
16388;DHT22;8303;53.446;9.988;2023-03-25T14:22:26;6.80;99.90
16388;DHT22;8303;53.446;9.988;2023-03-25T14:24:55;6.40;1.00
16388;DHT22;8303;53.446;9.988;2023-03-25T14:27:26;6.30;1.00
16388;DHT22;8303;53.446;9.988;2023-03-25T14:29:56;6.30;1.00
16388;DHT22;8303;53.446;9.988;2023-03-25T14:32:30;6.30;1.00
16388;DHT22;8303;53.446;9.988;2023-03-25T14:41:02;6.70;1.00
16388;DHT22;8303;53.446;9.988;2023-03-25T14:43:35;6.90;1.00
16388;DHT22;8303;53.446;9.988;2023-03-25T14:46:04;7.20;1.00
16388;DHT22;8303;53.446;9.988;2023-03-25T14:48:34;7.20;1.00
16388;DHT22;8303;53.446;9.988;2023-03-25T14:57:06;7.60;1.00
16388;DHT22;8303;53.446;9.988;2023-03-25T14:59:39;7.80;1.00
16388;DHT22;8303;53.446;9.988;2023-03-25T15:02:14;7.90;1.00
16388;DHT22;8303;53.446;9.988;2023-03-25T15:04:43;7.90;1.00
16388;DHT22;8303;53.446;9.988;2023-03-25T15:07:16;7.90;1.00
16388;DHT22;8303;53.446;9.988;2023-03-25T15:09:48;7.90;1.00
16388;DHT22;8303;53.446;9.988;2023-03-25T15:12:20;7.80;1.00
16388;DHT22;8303;53.446;9.988;2023-03-25T15:14:54;7.80;1.00
16388;DHT22;8303;53.446;9.988;2023-03-25T15:17:41;7.80;1.00
16388;DHT22;8303;53.446;9.988;2023-03-25T15:20:30;7.80;1.00
16388;DHT22;8303;53.446;9.988;2023-03-25T15:26:13;8.10;1.00
16388;DHT22;8303;53.446;9.988;2023-03-25T15:29:22;8.30;1.00
16388;DHT22;8303;53.446;9.988;2023-03-25T15:32:05;8.40;1.00
16388;DHT22;8303;53.446;9.988;2023-03-25T15:34:48;8.50;1.00
16388;DHT22;8303;53.446;9.988;2023-03-25T15:37:45;8.80;1.00
16388;DHT22;8303;53.446;9.988;2023-03-25T15:40:25;9.60;1.00
16388;DHT22;8303;53.446;9.988;2023-03-25T15:43:33;9.90;1.00
16388;DHT22;8303;53.446;9.988;2023-03-25T15:49:24;9.20;1.00
16388;DHT22;8303;53.446;9.988;2023-03-25T15:52:06;9.30;1.00
16388;DHT22;8303;53.446;9.988;2023-03-25T15:54:39;9.40;1.00
16388;DHT22;8303;53.446;9.988;2023-03-25T15:57:16;9.40;1.00
16388;DHT22;8303;53.446;9.988;2023-03-25T15:59:53;9.30;1.00
16388;DHT22;8303;53.446;9.988;2023-03-25T16:02:27;9.20;1.00
16388;DHT22;8303;53.446;9.988;2023-03-25T16:04:58;9.00;1.00
16388;DHT22;8303;53.446;9.988;2023-03-25T16:07:27;8.90;1.00
16388;DHT22;8303;53.446;9.988;2023-03-25T16:10:04;8.80;1.00
16388;DHT22;8303;53.446;9.988;2023-03-25T16:12:32;8.80;1.00
16388;DHT22;8303;53.446;9.988;2023-03-25T16:15:04;8.70;1.00
16388;DHT22;8303;53.446;9.988;2023-03-25T16:17:34;8.70;1.00
16388;DHT22;8303;53.446;9.988;2023-03-25T16:20:03;8.70;1.00
16388;DHT22;8303;53.446;9.988;2023-03-25T16:22:33;8.60;1.00
16388;DHT22;8303;53.446;9.988;2023-03-25T16:25:12;8.60;1.00
16388;DHT22;8303;53.446;9.988;2023-03-25T16:27:43;8.60;1.00
16388;DHT22;8303;53.446;9.988;2023-03-25T16:30:21;8.60;1.00
16388;DHT22;8303;53.446;9.988;2023-03-25T16:32:49;8.50;1.00
16388;DHT22;8303;53.446;9.988;2023-03-25T16:35:22;8.50;1.00
16388;DHT22;8303;53.446;9.988;2023-03-25T16:37:54;8.50;1.00
16388;DHT22;8303;53.446;9.988;2023-03-25T16:40:27;8.50;1.00
16388;DHT22;8303;53.446;9.988;2023-03-25T16:43:03;8.50;1.00
16388;DHT22;8303;53.446;9.988;2023-03-25T16:45:31;8.50;1.00
16388;DHT22;8303;53.446;9.988;2023-03-25T16:48:03;8.40;1.00
16388;DHT22;8303;53.446;9.988;2023-03-25T16:50:33;8.40;1.00
16388;DHT22;8303;53.446;9.988;2023-03-25T16:53:01;8.40;1.00
16388;DHT22;8303;53.446;9.988;2023-03-25T16:55:30;8.40;1.00
16388;DHT22;8303;53.446;9.988;2023-03-25T16:57:59;8.40;1.00
16388;DHT22;8303;53.446;9.988;2023-03-25T17:00:38;8.40;1.00
16388;DHT22;8303;53.446;9.988;2023-03-25T17:03:11;8.30;1.00
16388;DHT22;8303;53.446;9.988;2023-03-25T17:05:55;8.20;1.00
16388;DHT22;8303;53.446;9.988;2023-03-25T17:08:24;8.20;1.00
16388;DHT22;8303;53.446;9.988;2023-03-25T17:10:54;8.00;1.00
16388;DHT22;8303;53.446;9.988;2023-03-25T17:13:25;7.90;1.00
16388;DHT22;8303;53.446;9.988;2023-03-25T17:15:53;7.80;1.00
16388;DHT22;8303;53.446;9.988;2023-03-25T17:18:25;7.80;1.00
16388;DHT22;8303;53.446;9.988;2023-03-25T17:20:58;7.70;1.00
16388;DHT22;8303;53.446;9.988;2023-03-25T17:23:33;7.70;1.00
16388;DHT22;8303;53.446;9.988;2023-03-25T17:26:03;7.70;1.00
16388;DHT22;8303;53.446;9.988;2023-03-25T17:28:33;7.70;1.00
16388;DHT22;8303;53.446;9.988;2023-03-25T17:31:18;7.70;1.00
16388;DHT22;8303;53.446;9.988;2023-03-25T17:33:47;7.60;1.00
16388;DHT22;8303;53.446;9.988;2023-03-25T17:36:18;7.60;1.00
16388;DHT22;8303;53.446;9.988;2023-03-25T17:38:47;7.50;1.00
16388;DHT22;8303;53.446;9.988;2023-03-25T17:41:17;7.60;1.00
16388;DHT22;8303;53.446;9.988;2023-03-25T17:43:47;7.50;1.00
16388;DHT22;8303;53.446;9.988;2023-03-25T17:46:18;7.50;1.00
16388;DHT22;8303;53.446;9.988;2023-03-25T17:48:45;7.40;1.00
16388;DHT22;8303;53.446;9.988;2023-03-25T17:51:16;7.40;1.00
16388;DHT22;8303;53.446;9.988;2023-03-25T17:53:45;7.30;1.00
16388;DHT22;8303;53.446;9.988;2023-03-25T17:56:14;7.30;1.00
16388;DHT22;8303;53.446;9.988;2023-03-25T17:58:44;7.30;1.00
16388;DHT22;8303;53.446;9.988;2023-03-25T18:01:12;7.30;1.00
16388;DHT22;8303;53.446;9.988;2023-03-25T18:03:39;7.30;1.00
16388;DHT22;8303;53.446;9.988;2023-03-25T18:06:06;7.30;1.00
16388;DHT22;8303;53.446;9.988;2023-03-25T18:08:35;7.30;1.00
16388;DHT22;8303;53.446;9.988;2023-03-25T18:11:02;7.30;1.00
16388;DHT22;8303;53.446;9.988;2023-03-25T18:13:29;7.40;1.00
16388;DHT22;8303;53.446;9.988;2023-03-25T18:15:56;7.40;1.00
16388;DHT22;8303;53.446;9.988;2023-03-25T18:18:24;7.40;1.00
16388;DHT22;8303;53.446;9.988;2023-03-25T18:20:52;7.30;1.00
16388;DHT22;8303;53.446;9.988;2023-03-25T18:23:20;7.40;1.00
16388;DHT22;8303;53.446;9.988;2023-03-25T18:25:49;7.40;1.00
16388;DHT22;8303;53.446;9.988;2023-03-25T18:28:16;7.50;1.00
16388;DHT22;8303;53.446;9.988;2023-03-25T18:30:45;8.00;1.00
16388;DHT22;8303;53.446;9.988;2023-03-25T18:33:13;8.30;1.00
16388;DHT22;8303;53.446;9.988;2023-03-25T18:35:41;8.10;1.00
16388;DHT22;8303;53.446;9.988;2023-03-25T18:38:14;8.30;1.00
16388;DHT22;8303;53.446;9.988;2023-03-25T18:40:42;8.20;1.00
16388;DHT22;8303;53.446;9.988;2023-03-25T18:43:10;7.80;1.00
16388;DHT22;8303;53.446;9.988;2023-03-25T18:45:37;7.60;1.00
16388;DHT22;8303;53.446;9.988;2023-03-25T18:48:05;7.50;1.00
16388;DHT22;8303;53.446;9.988;2023-03-25T18:50:34;7.50;1.00
16388;DHT22;8303;53.446;9.988;2023-03-25T18:53:03;7.40;1.00
16388;DHT22;8303;53.446;9.988;2023-03-25T18:55:32;7.40;1.00
16388;DHT22;8303;53.446;9.988;2023-03-25T18:57:59;7.40;1.00
16388;DHT22;8303;53.446;9.988;2023-03-25T19:00:31;7.50;1.00
16388;DHT22;8303;53.446;9.988;2023-03-25T19:02:59;7.50;1.00
16388;DHT22;8303;53.446;9.988;2023-03-25T19:05:26;7.50;1.00
16388;DHT22;8303;53.446;9.988;2023-03-25T19:07:53;7.50;1.00
16388;DHT22;8303;53.446;9.988;2023-03-25T19:10:22;7.50;1.00
16388;DHT22;8303;53.446;9.988;2023-03-25T19:12:49;7.50;1.00
16388;DHT22;8303;53.446;9.988;2023-03-25T19:15:18;7.40;1.00
16388;DHT22;8303;53.446;9.988;2023-03-25T19:17:48;7.50;1.00
16388;DHT22;8303;53.446;9.988;2023-03-25T19:20:16;7.40;1.00
16388;DHT22;8303;53.446;9.988;2023-03-25T19:22:43;7.40;1.00
16388;DHT22;8303;53.446;9.988;2023-03-25T19:25:12;7.40;1.00
16388;DHT22;8303;53.446;9.988;2023-03-25T19:27:40;7.40;1.00
16388;DHT22;8303;53.446;9.988;2023-03-25T19:30:09;7.40;1.00
16388;DHT22;8303;53.446;9.988;2023-03-25T19:32:36;7.30;1.00
16388;DHT22;8303;53.446;9.988;2023-03-25T19:35:06;7.40;1.00
16388;DHT22;8303;53.446;9.988;2023-03-25T19:37:35;7.40;1.00
16388;DHT22;8303;53.446;9.988;2023-03-25T19:40:03;7.30;1.50
16388;DHT22;8303;53.446;9.988;2023-03-25T19:42:33;7.30;4.10
16388;DHT22;8303;53.446;9.988;2023-03-25T19:45:01;7.30;9.40
16388;DHT22;8303;53.446;9.988;2023-03-25T19:47:28;7.30;12.80
16388;DHT22;8303;53.446;9.988;2023-03-25T19:49:55;7.30;14.70
16388;DHT22;8303;53.446;9.988;2023-03-25T19:52:24;7.30;1.00
16388;DHT22;8303;53.446;9.988;2023-03-25T19:54:51;7.30;1.00
16388;DHT22;8303;53.446;9.988;2023-03-25T19:57:18;7.20;1.00
16388;DHT22;8303;53.446;9.988;2023-03-25T19:59:45;7.20;1.00
16388;DHT22;8303;53.446;9.988;2023-03-25T20:02:12;7.20;1.00
16388;DHT22;8303;53.446;9.988;2023-03-25T20:04:40;7.20;1.00
16388;DHT22;8303;53.446;9.988;2023-03-25T20:07:07;7.20;1.00
16388;DHT22;8303;53.446;9.988;2023-03-25T20:09:35;7.20;1.00
16388;DHT22;8303;53.446;9.988;2023-03-25T20:12:03;7.20;1.00
16388;DHT22;8303;53.446;9.988;2023-03-25T20:14:30;7.30;1.00
16388;DHT22;8303;53.446;9.988;2023-03-25T20:16:57;7.30;1.00
16388;DHT22;8303;53.446;9.988;2023-03-25T20:19:24;7.30;1.00
16388;DHT22;8303;53.446;9.988;2023-03-25T20:21:51;7.30;1.00
16388;DHT22;8303;53.446;9.988;2023-03-25T20:24:18;7.30;1.00
16388;DHT22;8303;53.446;9.988;2023-03-25T20:26:47;7.30;1.00
16388;DHT22;8303;53.446;9.988;2023-03-25T20:29:14;7.30;1.00
16388;DHT22;8303;53.446;9.988;2023-03-25T20:31:42;7.30;1.00
16388;DHT22;8303;53.446;9.988;2023-03-25T20:34:09;7.30;1.00
16388;DHT22;8303;53.446;9.988;2023-03-25T20:36:36;7.30;1.00
16388;DHT22;8303;53.446;9.988;2023-03-25T20:39:03;7.20;1.00
16388;DHT22;8303;53.446;9.988;2023-03-25T20:41:31;7.20;10.20
16388;DHT22;8303;53.446;9.988;2023-03-25T20:43:59;7.20;17.60
16388;DHT22;8303;53.446;9.988;2023-03-25T20:46:26;7.20;25.10
16388;DHT22;8303;53.446;9.988;2023-03-25T20:48:55;7.20;23.10
16388;DHT22;8303;53.446;9.988;2023-03-25T20:51:23;7.30;19.50
16388;DHT22;8303;53.446;9.988;2023-03-25T20:53:50;7.30;22.40
16388;DHT22;8303;53.446;9.988;2023-03-25T20:56:17;7.30;28.90
16388;DHT22;8303;53.446;9.988;2023-03-25T20:58:45;7.20;33.30
16388;DHT22;8303;53.446;9.988;2023-03-25T21:01:13;7.20;21.80
16388;DHT22;8303;53.446;9.988;2023-03-25T21:03:40;7.20;1.00
16388;DHT22;8303;53.446;9.988;2023-03-25T21:06:08;7.20;1.00
16388;DHT22;8303;53.446;9.988;2023-03-25T21:08:35;7.20;1.00
16388;DHT22;8303;53.446;9.988;2023-03-25T21:11:03;7.30;1.00
16388;DHT22;8303;53.446;9.988;2023-03-25T21:13:31;7.20;1.00
16388;DHT22;8303;53.446;9.988;2023-03-25T21:15:59;7.20;1.00
16388;DHT22;8303;53.446;9.988;2023-03-25T21:18:28;7.20;1.00
16388;DHT22;8303;53.446;9.988;2023-03-25T21:20:57;7.20;1.00
16388;DHT22;8303;53.446;9.988;2023-03-25T21:23:25;7.20;1.00
16388;DHT22;8303;53.446;9.988;2023-03-25T21:25:53;7.10;1.00
16388;DHT22;8303;53.446;9.988;2023-03-25T21:28:21;7.20;1.00
